sensor_id;sensor_type;location;lat;lon;timestamp;P1;durP1;ratioP1;P2;durP2;ratioP2
4517;SDS011;2271;49.464;11.070;2022-11-04T00:00:46;14.23;;;8.93;;
4517;SDS011;2271;49.464;11.070;2022-11-04T00:03:11;12.93;;;8.70;;
4517;SDS011;2271;49.464;11.070;2022-11-04T00:05:37;16.87;;;9.27;;
4517;SDS011;2271;49.464;11.070;2022-11-04T00:08:02;11.25;;;8.18;;
4517;SDS011;2271;49.464;11.070;2022-11-04T00:10:47;11.63;;;8.30;;
4517;SDS011;2271;49.464;11.070;2022-11-04T00:13:35;12.00;;;8.77;;
4517;SDS011;2271;49.464;11.070;2022-11-04T00:16:01;13.90;;;8.93;;
4517;SDS011;2271;49.464;11.070;2022-11-04T00:18:45;12.23;;;7.80;;
4517;SDS011;2271;49.464;11.070;2022-11-04T00:21:11;13.40;;;9.27;;
4517;SDS011;2271;49.464;11.070;2022-11-04T00:23:55;13.73;;;8.65;;
4517;SDS011;2271;49.464;11.070;2022-11-04T00:26:39;11.50;;;8.00;;
4517;SDS011;2271;49.464;11.070;2022-11-04T00:29:23;13.07;;;8.47;;
4517;SDS011;2271;49.464;11.070;2022-11-04T00:31:49;13.32;;;8.32;;
4517;SDS011;2271;49.464;11.070;2022-11-04T00:34:33;10.27;;;6.93;;
4517;SDS011;2271;49.464;11.070;2022-11-04T00:36:59;13.47;;;7.33;;
4517;SDS011;2271;49.464;11.070;2022-11-04T00:39:26;14.33;;;7.87;;
4517;SDS011;2271;49.464;11.070;2022-11-04T00:41:53;12.33;;;7.83;;
4517;SDS011;2271;49.464;11.070;2022-11-04T00:44:18;12.10;;;7.23;;
4517;SDS011;2271;49.464;11.070;2022-11-04T00:46:44;14.70;;;7.47;;
4517;SDS011;2271;49.464;11.070;2022-11-04T00:49:10;13.27;;;7.37;;
4517;SDS011;2271;49.464;11.070;2022-11-04T00:51:37;8.70;;;5.90;;
4517;SDS011;2271;49.464;11.070;2022-11-04T00:54:02;10.23;;;6.73;;
4517;SDS011;2271;49.464;11.070;2022-11-04T00:56:28;9.70;;;6.80;;
4517;SDS011;2271;49.464;11.070;2022-11-04T00:58:54;9.00;;;5.97;;
4517;SDS011;2271;49.464;11.070;2022-11-04T01:01:19;7.95;;;6.43;;
4517;SDS011;2271;49.464;11.070;2022-11-04T01:03:46;14.10;;;5.90;;
4517;SDS011;2271;49.464;11.070;2022-11-04T01:06:13;11.67;;;5.60;;
4517;SDS011;2271;49.464;11.070;2022-11-04T01:08:39;6.90;;;5.27;;
4517;SDS011;2271;49.464;11.070;2022-11-04T01:11:06;8.90;;;5.90;;
4517;SDS011;2271;49.464;11.070;2022-11-04T01:13:33;8.70;;;5.20;;
4517;SDS011;2271;49.464;11.070;2022-11-04T01:16:04;4.97;;;4.03;;
4517;SDS011;2271;49.464;11.070;2022-11-04T01:18:32;8.97;;;4.50;;
4517;SDS011;2271;49.464;11.070;2022-11-04T01:21:01;5.90;;;4.50;;
4517;SDS011;2271;49.464;11.070;2022-11-04T01:23:28;10.27;;;4.03;;
4517;SDS011;2271;49.464;11.070;2022-11-04T01:25:54;6.37;;;3.70;;
4517;SDS011;2271;49.464;11.070;2022-11-04T01:28:20;4.77;;;3.40;;
4517;SDS011;2271;49.464;11.070;2022-11-04T01:30:45;6.27;;;4.30;;
4517;SDS011;2271;49.464;11.070;2022-11-04T01:33:11;5.17;;;3.73;;
4517;SDS011;2271;49.464;11.070;2022-11-04T01:35:37;6.30;;;4.17;;
4517;SDS011;2271;49.464;11.070;2022-11-04T01:38:02;7.47;;;3.50;;
4517;SDS011;2271;49.464;11.070;2022-11-04T01:40:28;7.77;;;4.10;;
4517;SDS011;2271;49.464;11.070;2022-11-04T01:42:54;6.17;;;4.20;;
4517;SDS011;2271;49.464;11.070;2022-11-04T01:45:20;6.00;;;3.40;;
4517;SDS011;2271;49.464;11.070;2022-11-04T01:48:20;6.50;;;4.03;;
4517;SDS011;2271;49.464;11.070;2022-11-04T01:50:44;3.57;;;2.90;;
4517;SDS011;2271;49.464;11.070;2022-11-04T01:53:11;4.70;;;3.63;;
4517;SDS011;2271;49.464;11.070;2022-11-04T01:55:48;5.60;;;3.13;;
4517;SDS011;2271;49.464;11.070;2022-11-04T01:58:18;6.43;;;3.20;;
4517;SDS011;2271;49.464;11.070;2022-11-04T02:00:46;4.00;;;2.77;;
4517;SDS011;2271;49.464;11.070;2022-11-04T02:03:17;5.17;;;3.20;;
4517;SDS011;2271;49.464;11.070;2022-11-04T02:05:45;4.77;;;2.60;;
4517;SDS011;2271;49.464;11.070;2022-11-04T02:08:11;4.00;;;3.10;;
4517;SDS011;2271;49.464;11.070;2022-11-04T02:10:40;4.70;;;3.47;;
4517;SDS011;2271;49.464;11.070;2022-11-04T02:13:11;2.47;;;1.77;;
4517;SDS011;2271;49.464;11.070;2022-11-04T02:18:09;4.33;;;1.80;;
4517;SDS011;2271;49.464;11.070;2022-11-04T02:20:49;3.17;;;1.90;;
4517;SDS011;2271;49.464;11.070;2022-11-04T02:26:31;2.10;;;1.80;;
4517;SDS011;2271;49.464;11.070;2022-11-04T02:31:42;2.00;;;1.43;;
4517;SDS011;2271;49.464;11.070;2022-11-04T02:37:02;1.83;;;1.20;;
4517;SDS011;2271;49.464;11.070;2022-11-04T02:44:59;3.40;;;1.63;;
4517;SDS011;2271;49.464;11.070;2022-11-04T02:47:27;4.23;;;1.40;;
4517;SDS011;2271;49.464;11.070;2022-11-04T02:50:02;3.33;;;1.60;;
4517;SDS011;2271;49.464;11.070;2022-11-04T02:52:39;2.65;;;1.98;;
4517;SDS011;2271;49.464;11.070;2022-11-04T02:55:17;2.93;;;1.50;;
4517;SDS011;2271;49.464;11.070;2022-11-04T02:57:47;3.57;;;0.90;;
4517;SDS011;2271;49.464;11.070;2022-11-04T03:00:16;2.90;;;1.47;;
4517;SDS011;2271;49.464;11.070;2022-11-04T03:02:52;3.88;;;1.10;;
4517;SDS011;2271;49.464;11.070;2022-11-04T03:05:25;2.80;;;0.97;;
4517;SDS011;2271;49.464;11.070;2022-11-04T03:07:56;1.77;;;1.27;;
4517;SDS011;2271;49.464;11.070;2022-11-04T03:10:32;3.00;;;1.30;;
4517;SDS011;2271;49.464;11.070;2022-11-04T03:13:01;3.73;;;1.53;;
4517;SDS011;2271;49.464;11.070;2022-11-04T03:15:32;2.13;;;1.67;;
4517;SDS011;2271;49.464;11.070;2022-11-04T03:20:44;2.40;;;1.60;;
4517;SDS011;2271;49.464;11.070;2022-11-04T03:23:12;3.20;;;1.30;;
4517;SDS011;2271;49.464;11.070;2022-11-04T03:25:39;1.48;;;0.98;;
4517;SDS011;2271;49.464;11.070;2022-11-04T03:30:48;1.33;;;0.90;;
4517;SDS011;2271;49.464;11.070;2022-11-04T03:35:49;1.13;;;0.90;;
4517;SDS011;2271;49.464;11.070;2022-11-04T03:38:15;1.40;;;0.80;;
4517;SDS011;2271;49.464;11.070;2022-11-04T03:40:40;0.90;;;0.90;;
4517;SDS011;2271;49.464;11.070;2022-11-04T03:43:09;3.37;;;0.73;;
4517;SDS011;2271;49.464;11.070;2022-11-04T03:45:38;1.77;;;0.80;;
4517;SDS011;2271;49.464;11.070;2022-11-04T03:48:04;1.30;;;1.00;;
4517;SDS011;2271;49.464;11.070;2022-11-04T03:50:38;1.60;;;1.07;;
4517;SDS011;2271;49.464;11.070;2022-11-04T03:53:12;3.87;;;0.87;;
4517;SDS011;2271;49.464;11.070;2022-11-04T04:01:38;1.13;;;0.80;;
4517;SDS011;2271;49.464;11.070;2022-11-04T04:04:32;1.30;;;1.10;;
4517;SDS011;2271;49.464;11.070;2022-11-04T04:07:11;2.43;;;1.10;;
4517;SDS011;2271;49.464;11.070;2022-11-04T04:09:53;1.00;;;0.90;;
4517;SDS011;2271;49.464;11.070;2022-11-04T04:12:34;2.28;;;1.08;;
4517;SDS011;2271;49.464;11.070;2022-11-04T04:17:36;1.10;;;0.80;;
4517;SDS011;2271;49.464;11.070;2022-11-04T04:20:08;1.48;;;1.10;;
4517;SDS011;2271;49.464;11.070;2022-11-04T04:22:53;1.10;;;1.00;;
4517;SDS011;2271;49.464;11.070;2022-11-04T04:25:23;2.40;;;0.90;;
4517;SDS011;2271;49.464;11.070;2022-11-04T04:28:11;4.83;;;1.10;;
4517;SDS011;2271;49.464;11.070;2022-11-04T04:30:38;0.50;;;0.50;;
4517;SDS011;2271;49.464;11.070;2022-11-04T04:33:15;2.10;;;0.80;;
4517;SDS011;2271;49.464;11.070;2022-11-04T04:35:45;0.90;;;0.80;;
4517;SDS011;2271;49.464;11.070;2022-11-04T04:38:23;2.28;;;1.00;;
4517;SDS011;2271;49.464;11.070;2022-11-04T04:41:17;0.87;;;0.83;;
4517;SDS011;2271;49.464;11.070;2022-11-04T04:44:02;1.80;;;0.93;;
4517;SDS011;2271;49.464;11.070;2022-11-04T04:46:52;1.20;;;0.73;;
4517;SDS011;2271;49.464;11.070;2022-11-04T04:49:19;1.00;;;0.87;;
4517;SDS011;2271;49.464;11.070;2022-11-04T04:51:45;2.30;;;1.10;;
4517;SDS011;2271;49.464;11.070;2022-11-04T04:54:12;1.37;;;0.83;;
4517;SDS011;2271;49.464;11.070;2022-11-04T04:56:38;1.02;;;0.98;;
4517;SDS011;2271;49.464;11.070;2022-11-04T04:59:04;1.30;;;0.80;;
4517;SDS011;2271;49.464;11.070;2022-11-04T05:01:30;1.13;;;1.00;;
4517;SDS011;2271;49.464;11.070;2022-11-04T05:03:56;1.53;;;0.90;;
4517;SDS011;2271;49.464;11.070;2022-11-04T05:06:22;0.80;;;0.80;;
4517;SDS011;2271;49.464;11.070;2022-11-04T05:08:47;1.43;;;0.80;;
4517;SDS011;2271;49.464;11.070;2022-11-04T05:11:13;1.33;;;0.80;;
4517;SDS011;2271;49.464;11.070;2022-11-04T05:13:39;1.67;;;1.00;;
4517;SDS011;2271;49.464;11.070;2022-11-04T05:16:05;1.70;;;1.10;;
4517;SDS011;2271;49.464;11.070;2022-11-04T05:18:33;1.37;;;0.90;;
4517;SDS011;2271;49.464;11.070;2022-11-04T05:21:07;1.50;;;1.00;;
4517;SDS011;2271;49.464;11.070;2022-11-04T05:23:34;1.40;;;1.00;;
4517;SDS011;2271;49.464;11.070;2022-11-04T05:26:00;3.53;;;1.10;;
4517;SDS011;2271;49.464;11.070;2022-11-04T05:28:26;1.13;;;0.90;;
4517;SDS011;2271;49.464;11.070;2022-11-04T05:30:52;4.43;;;0.93;;
4517;SDS011;2271;49.464;11.070;2022-11-04T05:33:17;4.03;;;1.40;;
4517;SDS011;2271;49.464;11.070;2022-11-04T05:35:43;1.17;;;1.07;;
4517;SDS011;2271;49.464;11.070;2022-11-04T05:38:09;1.57;;;1.20;;
4517;SDS011;2271;49.464;11.070;2022-11-04T05:40:34;1.93;;;1.47;;
4517;SDS011;2271;49.464;11.070;2022-11-04T05:43:00;5.63;;;1.50;;
4517;SDS011;2271;49.464;11.070;2022-11-04T05:45:26;3.67;;;1.57;;
4517;SDS011;2271;49.464;11.070;2022-11-04T05:47:59;2.27;;;1.10;;
4517;SDS011;2271;49.464;11.070;2022-11-04T05:50:26;3.50;;;1.20;;
4517;SDS011;2271;49.464;11.070;2022-11-04T05:52:55;1.40;;;1.13;;
4517;SDS011;2271;49.464;11.070;2022-11-04T05:55:22;2.57;;;1.30;;
4517;SDS011;2271;49.464;11.070;2022-11-04T05:57:47;1.63;;;1.27;;
4517;SDS011;2271;49.464;11.070;2022-11-04T06:00:13;1.73;;;1.23;;
4517;SDS011;2271;49.464;11.070;2022-11-04T06:02:39;2.93;;;1.63;;
4517;SDS011;2271;49.464;11.070;2022-11-04T06:05:05;2.67;;;1.50;;
4517;SDS011;2271;49.464;11.070;2022-11-04T06:07:31;2.23;;;1.20;;
4517;SDS011;2271;49.464;11.070;2022-11-04T06:09:56;2.63;;;1.90;;
4517;SDS011;2271;49.464;11.070;2022-11-04T06:12:22;2.73;;;1.40;;
4517;SDS011;2271;49.464;11.070;2022-11-04T06:14:47;1.75;;;1.35;;
4517;SDS011;2271;49.464;11.070;2022-11-04T06:17:14;4.53;;;1.60;;
4517;SDS011;2271;49.464;11.070;2022-11-04T06:19:49;1.83;;;1.60;;
4517;SDS011;2271;49.464;11.070;2022-11-04T06:22:15;3.17;;;1.30;;
4517;SDS011;2271;49.464;11.070;2022-11-04T06:24:42;2.95;;;1.67;;
4517;SDS011;2271;49.464;11.070;2022-11-04T06:27:08;3.70;;;1.93;;
4517;SDS011;2271;49.464;11.070;2022-11-04T06:29:34;1.80;;;1.50;;
4517;SDS011;2271;49.464;11.070;2022-11-04T06:32:04;3.30;;;2.30;;
4517;SDS011;2271;49.464;11.070;2022-11-04T06:34:30;2.20;;;1.23;;
4517;SDS011;2271;49.464;11.070;2022-11-04T06:36:56;5.57;;;1.60;;
4517;SDS011;2271;49.464;11.070;2022-11-04T06:39:21;3.70;;;1.97;;
4517;SDS011;2271;49.464;11.070;2022-11-04T06:41:47;2.93;;;1.87;;
4517;SDS011;2271;49.464;11.070;2022-11-04T06:44:12;6.05;;;1.88;;
4517;SDS011;2271;49.464;11.070;2022-11-04T06:46:39;5.45;;;2.92;;
4517;SDS011;2271;49.464;11.070;2022-11-04T06:49:06;9.20;;;2.40;;
4517;SDS011;2271;49.464;11.070;2022-11-04T06:51:35;2.70;;;1.83;;
4517;SDS011;2271;49.464;11.070;2022-11-04T06:54:01;3.50;;;1.90;;
4517;SDS011;2271;49.464;11.070;2022-11-04T06:56:27;3.07;;;2.10;;
4517;SDS011;2271;49.464;11.070;2022-11-04T06:58:53;2.17;;;1.67;;
4517;SDS011;2271;49.464;11.070;2022-11-04T07:01:19;3.87;;;2.30;;
4517;SDS011;2271;49.464;11.070;2022-11-04T07:03:47;2.93;;;2.07;;
4517;SDS011;2271;49.464;11.070;2022-11-04T07:06:14;2.33;;;1.63;;
4517;SDS011;2271;49.464;11.070;2022-11-04T07:08:40;3.72;;;1.50;;
4517;SDS011;2271;49.464;11.070;2022-11-04T07:11:06;2.50;;;1.80;;
4517;SDS011;2271;49.464;11.070;2022-11-04T07:13:31;2.50;;;1.65;;
4517;SDS011;2271;49.464;11.070;2022-11-04T07:15:57;6.45;;;2.75;;
4517;SDS011;2271;49.464;11.070;2022-11-04T07:18:23;2.57;;;1.47;;
4517;SDS011;2271;49.464;11.070;2022-11-04T07:20:49;1.70;;;1.30;;
4517;SDS011;2271;49.464;11.070;2022-11-04T07:23:15;5.47;;;1.77;;
4517;SDS011;2271;49.464;11.070;2022-11-04T07:25:41;1.87;;;1.10;;
4517;SDS011;2271;49.464;11.070;2022-11-04T07:28:07;5.60;;;1.80;;
4517;SDS011;2271;49.464;11.070;2022-11-04T07:30:33;3.43;;;1.30;;
4517;SDS011;2271;49.464;11.070;2022-11-04T07:33:04;1.37;;;1.17;;
4517;SDS011;2271;49.464;11.070;2022-11-04T07:35:30;4.60;;;1.20;;
4517;SDS011;2271;49.464;11.070;2022-11-04T07:37:55;3.43;;;1.47;;
4517;SDS011;2271;49.464;11.070;2022-11-04T07:40:21;1.80;;;1.40;;
4517;SDS011;2271;49.464;11.070;2022-11-04T07:42:47;1.80;;;1.00;;
4517;SDS011;2271;49.464;11.070;2022-11-04T07:45:12;2.33;;;1.20;;
4517;SDS011;2271;49.464;11.070;2022-11-04T07:47:38;3.03;;;1.47;;
4517;SDS011;2271;49.464;11.070;2022-11-04T07:50:04;2.17;;;1.20;;
4517;SDS011;2271;49.464;11.070;2022-11-04T07:52:29;5.43;;;1.97;;
4517;SDS011;2271;49.464;11.070;2022-11-04T07:54:55;2.73;;;1.80;;
4517;SDS011;2271;49.464;11.070;2022-11-04T07:57:21;5.23;;;2.20;;
4517;SDS011;2271;49.464;11.070;2022-11-04T07:59:46;5.93;;;2.00;;
4517;SDS011;2271;49.464;11.070;2022-11-04T08:02:12;2.87;;;1.90;;
4517;SDS011;2271;49.464;11.070;2022-11-04T08:04:37;3.57;;;1.67;;
4517;SDS011;2271;49.464;11.070;2022-11-04T08:07:03;3.08;;;1.48;;
4517;SDS011;2271;49.464;11.070;2022-11-04T08:09:32;3.87;;;0.97;;
4517;SDS011;2271;49.464;11.070;2022-11-04T08:12:00;3.40;;;1.50;;
4517;SDS011;2271;49.464;11.070;2022-11-04T08:14:26;5.30;;;2.13;;
4517;SDS011;2271;49.464;11.070;2022-11-04T08:16:52;4.40;;;1.50;;
4517;SDS011;2271;49.464;11.070;2022-11-04T08:19:17;3.93;;;1.40;;
4517;SDS011;2271;49.464;11.070;2022-11-04T08:21:43;2.40;;;1.33;;
4517;SDS011;2271;49.464;11.070;2022-11-04T08:24:08;6.47;;;1.42;;
4517;SDS011;2271;49.464;11.070;2022-11-04T08:26:34;2.20;;;1.13;;
4517;SDS011;2271;49.464;11.070;2022-11-04T08:29:00;2.97;;;1.27;;
4517;SDS011;2271;49.464;11.070;2022-11-04T08:31:27;3.77;;;1.57;;
4517;SDS011;2271;49.464;11.070;2022-11-04T08:33:55;4.60;;;1.37;;
4517;SDS011;2271;49.464;11.070;2022-11-04T08:36:22;3.03;;;1.23;;
4517;SDS011;2271;49.464;11.070;2022-11-04T08:38:50;2.10;;;1.10;;
4517;SDS011;2271;49.464;11.070;2022-11-04T08:41:16;3.43;;;2.30;;
4517;SDS011;2271;49.464;11.070;2022-11-04T08:43:44;5.90;;;2.00;;
4517;SDS011;2271;49.464;11.070;2022-11-04T08:46:11;2.70;;;1.13;;
4517;SDS011;2271;49.464;11.070;2022-11-04T08:48:38;3.90;;;1.40;;
4517;SDS011;2271;49.464;11.070;2022-11-04T08:51:06;6.87;;;1.40;;
4517;SDS011;2271;49.464;11.070;2022-11-04T08:53:36;6.60;;;1.63;;
4517;SDS011;2271;49.464;11.070;2022-11-04T08:56:12;3.00;;;1.20;;
4517;SDS011;2271;49.464;11.070;2022-11-04T08:58:42;5.23;;;1.47;;
4517;SDS011;2271;49.464;11.070;2022-11-04T09:01:08;3.58;;;1.27;;
4517;SDS011;2271;49.464;11.070;2022-11-04T09:03:35;4.73;;;1.47;;
4517;SDS011;2271;49.464;11.070;2022-11-04T09:06:03;5.47;;;1.57;;
4517;SDS011;2271;49.464;11.070;2022-11-04T09:08:33;3.93;;;1.90;;
4517;SDS011;2271;49.464;11.070;2022-11-04T09:10:59;2.80;;;1.43;;
4517;SDS011;2271;49.464;11.070;2022-11-04T09:13:25;3.37;;;1.30;;
4517;SDS011;2271;49.464;11.070;2022-11-04T09:15:51;4.23;;;1.60;;
4517;SDS011;2271;49.464;11.070;2022-11-04T09:18:17;2.57;;;1.70;;
4517;SDS011;2271;49.464;11.070;2022-11-04T09:20:43;10.30;;;1.70;;
4517;SDS011;2271;49.464;11.070;2022-11-04T09:23:09;3.37;;;1.27;;
4517;SDS011;2271;49.464;11.070;2022-11-04T09:25:35;4.88;;;2.22;;
4517;SDS011;2271;49.464;11.070;2022-11-04T09:28:01;1.87;;;1.33;;
4517;SDS011;2271;49.464;11.070;2022-11-04T09:30:28;11.10;;;2.70;;
4517;SDS011;2271;49.464;11.070;2022-11-04T09:32:54;2.37;;;1.20;;
4517;SDS011;2271;49.464;11.070;2022-11-04T09:35:19;3.20;;;1.50;;
4517;SDS011;2271;49.464;11.070;2022-11-04T09:37:45;1.40;;;1.10;;
4517;SDS011;2271;49.464;11.070;2022-11-04T09:40:11;2.37;;;1.13;;
4517;SDS011;2271;49.464;11.070;2022-11-04T09:45:23;3.67;;;1.30;;
4517;SDS011;2271;49.464;11.070;2022-11-04T09:47:54;3.27;;;1.40;;
4517;SDS011;2271;49.464;11.070;2022-11-04T09:50:27;2.87;;;1.13;;
4517;SDS011;2271;49.464;11.070;2022-11-04T09:53:07;2.63;;;1.30;;
4517;SDS011;2271;49.464;11.070;2022-11-04T09:55:45;5.57;;;1.90;;
4517;SDS011;2271;49.464;11.070;2022-11-04T09:58:19;3.63;;;1.37;;
4517;SDS011;2271;49.464;11.070;2022-11-04T10:01:00;6.40;;;1.40;;
4517;SDS011;2271;49.464;11.070;2022-11-04T10:03:46;4.23;;;1.37;;
4517;SDS011;2271;49.464;11.070;2022-11-04T10:25:22;3.33;;;1.30;;
4517;SDS011;2271;49.464;11.070;2022-11-04T10:27:53;2.57;;;1.50;;
4517;SDS011;2271;49.464;11.070;2022-11-04T10:30:20;6.82;;;1.45;;
4517;SDS011;2271;49.464;11.070;2022-11-04T10:38:12;7.30;;;1.73;;
4517;SDS011;2271;49.464;11.070;2022-11-04T10:40:41;4.25;;;1.30;;
4517;SDS011;2271;49.464;11.070;2022-11-04T10:43:15;3.00;;;0.93;;
4517;SDS011;2271;49.464;11.070;2022-11-04T10:45:52;8.43;;;1.70;;
4517;SDS011;2271;49.464;11.070;2022-11-04T10:48:29;3.50;;;1.20;;
4517;SDS011;2271;49.464;11.070;2022-11-04T10:51:01;7.95;;;1.10;;
4517;SDS011;2271;49.464;11.070;2022-11-04T10:53:27;3.88;;;1.08;;
4517;SDS011;2271;49.464;11.070;2022-11-04T10:58:45;5.00;;;1.75;;
4517;SDS011;2271;49.464;11.070;2022-11-04T11:01:22;6.32;;;1.65;;
4517;SDS011;2271;49.464;11.070;2022-11-04T11:03:50;4.63;;;1.42;;
4517;SDS011;2271;49.464;11.070;2022-11-04T11:06:32;4.70;;;1.30;;
4517;SDS011;2271;49.464;11.070;2022-11-04T11:11:43;5.95;;;1.30;;
4517;SDS011;2271;49.464;11.070;2022-11-04T11:14:15;3.22;;;1.15;;
4517;SDS011;2271;49.464;11.070;2022-11-04T11:16:41;5.15;;;1.35;;
4517;SDS011;2271;49.464;11.070;2022-11-04T11:19:14;5.25;;;1.38;;
4517;SDS011;2271;49.464;11.070;2022-11-04T11:21:49;1.17;;;0.80;;
4517;SDS011;2271;49.464;11.070;2022-11-04T11:24:23;6.40;;;1.30;;
4517;SDS011;2271;49.464;11.070;2022-11-04T11:26:51;6.32;;;1.40;;
4517;SDS011;2271;49.464;11.070;2022-11-04T11:31:50;4.57;;;0.93;;
4517;SDS011;2271;49.464;11.070;2022-11-04T11:34:18;1.40;;;1.10;;
4517;SDS011;2271;49.464;11.070;2022-11-04T11:36:50;2.75;;;1.30;;
4517;SDS011;2271;49.464;11.070;2022-11-04T11:39:18;4.10;;;1.30;;
4517;SDS011;2271;49.464;11.070;2022-11-04T11:47:18;4.43;;;1.05;;
4517;SDS011;2271;49.464;11.070;2022-11-04T11:49:44;1.92;;;0.90;;
4517;SDS011;2271;49.464;11.070;2022-11-04T11:54:55;3.92;;;1.42;;
4517;SDS011;2271;49.464;11.070;2022-11-04T11:57:46;3.70;;;1.30;;
4517;SDS011;2271;49.464;11.070;2022-11-04T12:00:27;3.47;;;1.58;;
4517;SDS011;2271;49.464;11.070;2022-11-04T12:05:34;6.35;;;1.48;;
4517;SDS011;2271;49.464;11.070;2022-11-04T12:13:20;4.03;;;1.02;;
4517;SDS011;2271;49.464;11.070;2022-11-04T12:21:22;3.08;;;1.33;;
4517;SDS011;2271;49.464;11.070;2022-11-04T12:40:44;3.25;;;1.00;;
4517;SDS011;2271;49.464;11.070;2022-11-04T12:43:24;3.28;;;1.23;;
4517;SDS011;2271;49.464;11.070;2022-11-04T12:49:00;3.80;;;1.10;;
4517;SDS011;2271;49.464;11.070;2022-11-04T12:57:35;2.38;;;1.08;;
4517;SDS011;2271;49.464;11.070;2022-11-04T13:08:35;6.35;;;1.17;;
4517;SDS011;2271;49.464;11.070;2022-11-04T13:17:06;7.35;;;1.08;;
4517;SDS011;2271;49.464;11.070;2022-11-04T13:19:43;2.33;;;1.27;;
4517;SDS011;2271;49.464;11.070;2022-11-04T13:22:17;5.70;;;1.65;;
4517;SDS011;2271;49.464;11.070;2022-11-04T13:24:51;3.00;;;1.27;;
4517;SDS011;2271;49.464;11.070;2022-11-04T13:27:22;3.38;;;1.33;;
4517;SDS011;2271;49.464;11.070;2022-11-04T13:29:52;5.32;;;1.38;;
4517;SDS011;2271;49.464;11.070;2022-11-04T13:32:55;4.25;;;0.95;;
4517;SDS011;2271;49.464;11.070;2022-11-04T13:38:39;2.15;;;1.38;;
4517;SDS011;2271;49.464;11.070;2022-11-04T13:43:52;4.88;;;1.42;;
4517;SDS011;2271;49.464;11.070;2022-11-04T13:49:01;7.90;;;1.70;;
4517;SDS011;2271;49.464;11.070;2022-11-04T13:51:35;3.67;;;1.35;;
4517;SDS011;2271;49.464;11.070;2022-11-04T13:54:02;8.35;;;2.00;;
4517;SDS011;2271;49.464;11.070;2022-11-04T13:56:30;2.40;;;1.10;;
4517;SDS011;2271;49.464;11.070;2022-11-04T14:01:30;1.55;;;1.20;;
4517;SDS011;2271;49.464;11.070;2022-11-04T14:14:36;2.38;;;1.58;;
4517;SDS011;2271;49.464;11.070;2022-11-04T14:17:02;5.13;;;1.40;;
4517;SDS011;2271;49.464;11.070;2022-11-04T14:19:52;5.43;;;1.48;;
4517;SDS011;2271;49.464;11.070;2022-11-04T14:25:36;3.75;;;1.35;;
4517;SDS011;2271;49.464;11.070;2022-11-04T14:30:49;8.25;;;2.97;;
4517;SDS011;2271;49.464;11.070;2022-11-04T14:36:13;8.98;;;2.10;;
4517;SDS011;2271;49.464;11.070;2022-11-04T14:38:57;3.85;;;1.50;;
4517;SDS011;2271;49.464;11.070;2022-11-04T14:44:34;6.68;;;1.30;;
4517;SDS011;2271;49.464;11.070;2022-11-04T14:50:06;5.25;;;1.13;;
4517;SDS011;2271;49.464;11.070;2022-11-04T14:57:39;2.03;;;1.30;;
4517;SDS011;2271;49.464;11.070;2022-11-04T15:02:46;2.63;;;1.38;;
4517;SDS011;2271;49.464;11.070;2022-11-04T15:05:25;5.93;;;2.03;;
4517;SDS011;2271;49.464;11.070;2022-11-04T15:07:52;3.20;;;1.02;;
4517;SDS011;2271;49.464;11.070;2022-11-04T15:12:57;3.25;;;1.88;;
4517;SDS011;2271;49.464;11.070;2022-11-04T15:17:58;2.50;;;1.00;;
4517;SDS011;2271;49.464;11.070;2022-11-04T15:20:39;3.88;;;1.20;;
4517;SDS011;2271;49.464;11.070;2022-11-04T15:23:20;2.08;;;0.95;;
4517;SDS011;2271;49.464;11.070;2022-11-04T15:25:52;13.33;;;6.30;;
4517;SDS011;2271;49.464;11.070;2022-11-04T15:33:40;6.25;;;1.73;;
4517;SDS011;2271;49.464;11.070;2022-11-04T15:36:14;4.57;;;1.90;;
4517;SDS011;2271;49.464;11.070;2022-11-04T15:38:43;5.65;;;1.98;;
4517;SDS011;2271;49.464;11.070;2022-11-04T15:41:18;6.27;;;2.40;;
4517;SDS011;2271;49.464;11.070;2022-11-04T15:44:05;6.70;;;2.13;;
4517;SDS011;2271;49.464;11.070;2022-11-04T15:46:39;6.40;;;2.40;;
4517;SDS011;2271;49.464;11.070;2022-11-04T15:49:05;3.95;;;2.25;;
4517;SDS011;2271;49.464;11.070;2022-11-04T15:51:35;3.87;;;2.10;;
4517;SDS011;2271;49.464;11.070;2022-11-04T15:54:04;6.17;;;2.70;;
4517;SDS011;2271;49.464;11.070;2022-11-04T15:56:47;11.68;;;2.40;;
4517;SDS011;2271;49.464;11.070;2022-11-04T15:59:51;5.50;;;2.00;;
4517;SDS011;2271;49.464;11.070;2022-11-04T16:02:25;3.27;;;1.80;;
4517;SDS011;2271;49.464;11.070;2022-11-04T16:07:40;3.70;;;2.10;;
4517;SDS011;2271;49.464;11.070;2022-11-04T16:12:56;5.13;;;2.03;;
4517;SDS011;2271;49.464;11.070;2022-11-04T16:15:31;3.25;;;2.20;;
4517;SDS011;2271;49.464;11.070;2022-11-04T16:18:04;6.10;;;2.80;;
4517;SDS011;2271;49.464;11.070;2022-11-04T16:20:31;6.38;;;2.65;;
4517;SDS011;2271;49.464;11.070;2022-11-04T16:22:59;10.32;;;3.35;;
4517;SDS011;2271;49.464;11.070;2022-11-04T16:25:32;5.13;;;2.70;;
4517;SDS011;2271;49.464;11.070;2022-11-04T16:27:59;3.83;;;2.30;;
4517;SDS011;2271;49.464;11.070;2022-11-04T16:30:25;6.15;;;3.75;;
4517;SDS011;2271;49.464;11.070;2022-11-04T16:32:53;8.53;;;3.03;;
4517;SDS011;2271;49.464;11.070;2022-11-04T16:35:23;8.40;;;2.87;;
4517;SDS011;2271;49.464;11.070;2022-11-04T16:37:52;5.80;;;2.63;;
4517;SDS011;2271;49.464;11.070;2022-11-04T16:40:19;5.20;;;2.13;;
4517;SDS011;2271;49.464;11.070;2022-11-04T16:42:47;6.93;;;2.40;;
4517;SDS011;2271;49.464;11.070;2022-11-04T16:45:33;8.15;;;2.50;;
4517;SDS011;2271;49.464;11.070;2022-11-04T16:48:00;8.80;;;3.37;;
4517;SDS011;2271;49.464;11.070;2022-11-04T16:50:26;7.95;;;3.92;;
4517;SDS011;2271;49.464;11.070;2022-11-04T16:52:53;8.43;;;3.23;;
4517;SDS011;2271;49.464;11.070;2022-11-04T16:55:19;10.03;;;3.67;;
4517;SDS011;2271;49.464;11.070;2022-11-04T16:57:48;6.87;;;3.30;;
4517;SDS011;2271;49.464;11.070;2022-11-04T17:00:23;10.57;;;4.03;;
4517;SDS011;2271;49.464;11.070;2022-11-04T17:02:50;6.80;;;2.57;;
4517;SDS011;2271;49.464;11.070;2022-11-04T17:05:16;7.13;;;3.07;;
4517;SDS011;2271;49.464;11.070;2022-11-04T17:07:42;3.80;;;2.67;;
4517;SDS011;2271;49.464;11.070;2022-11-04T17:10:19;7.57;;;3.00;;
4517;SDS011;2271;49.464;11.070;2022-11-04T17:12:50;4.80;;;2.73;;
4517;SDS011;2271;49.464;11.070;2022-11-04T17:15:16;6.80;;;3.33;;
4517;SDS011;2271;49.464;11.070;2022-11-04T17:17:42;6.38;;;3.75;;
4517;SDS011;2271;49.464;11.070;2022-11-04T17:20:12;7.27;;;2.77;;
4517;SDS011;2271;49.464;11.070;2022-11-04T17:22:41;5.38;;;3.50;;
4517;SDS011;2271;49.464;11.070;2022-11-04T17:25:18;14.30;;;3.43;;
4517;SDS011;2271;49.464;11.070;2022-11-04T17:27:46;6.77;;;3.77;;
4517;SDS011;2271;49.464;11.070;2022-11-04T17:30:12;8.93;;;4.87;;
4517;SDS011;2271;49.464;11.070;2022-11-04T17:32:39;11.20;;;4.60;;
4517;SDS011;2271;49.464;11.070;2022-11-04T17:35:05;6.70;;;3.23;;
4517;SDS011;2271;49.464;11.070;2022-11-04T17:37:31;9.27;;;3.60;;
4517;SDS011;2271;49.464;11.070;2022-11-04T17:39:58;6.73;;;3.20;;
4517;SDS011;2271;49.464;11.070;2022-11-04T17:42:23;11.93;;;4.13;;
4517;SDS011;2271;49.464;11.070;2022-11-04T17:45:08;8.00;;;4.30;;
4517;SDS011;2271;49.464;11.070;2022-11-04T17:47:34;6.23;;;3.57;;
4517;SDS011;2271;49.464;11.070;2022-11-04T17:50:00;6.68;;;3.97;;
4517;SDS011;2271;49.464;11.070;2022-11-04T17:52:27;10.77;;;4.25;;
4517;SDS011;2271;49.464;11.070;2022-11-04T17:54:53;11.77;;;4.13;;
4517;SDS011;2271;49.464;11.070;2022-11-04T17:57:18;12.38;;;3.95;;
4517;SDS011;2271;49.464;11.070;2022-11-04T17:59:44;6.60;;;4.55;;
4517;SDS011;2271;49.464;11.070;2022-11-04T18:02:09;12.82;;;4.32;;
4517;SDS011;2271;49.464;11.070;2022-11-04T18:04:35;13.77;;;5.00;;
4517;SDS011;2271;49.464;11.070;2022-11-04T18:07:01;7.97;;;4.78;;
4517;SDS011;2271;49.464;11.070;2022-11-04T18:09:27;10.30;;;5.13;;
4517;SDS011;2271;49.464;11.070;2022-11-04T18:11:54;13.77;;;5.40;;
4517;SDS011;2271;49.464;11.070;2022-11-04T18:14:38;7.38;;;4.63;;
4517;SDS011;2271;49.464;11.070;2022-11-04T18:17:04;10.30;;;4.80;;
4517;SDS011;2271;49.464;11.070;2022-11-04T18:19:30;8.53;;;4.77;;
4517;SDS011;2271;49.464;11.070;2022-11-04T18:21:55;9.63;;;5.00;;
4517;SDS011;2271;49.464;11.070;2022-11-04T18:24:21;13.80;;;6.00;;
4517;SDS011;2271;49.464;11.070;2022-11-04T18:26:47;11.18;;;6.35;;